createdAt,value
2023-05-13T00:02:13.959Z,63.60
2023-05-13T00:04:40.445Z,63.60
2023-05-13T00:07:06.908Z,63.70
2023-05-13T00:09:33.389Z,63.70
2023-05-13T00:11:59.774Z,63.70
2023-05-13T00:14:26.171Z,63.70
2023-05-13T00:16:52.601Z,63.70
2023-05-13T00:19:19.096Z,63.80
2023-05-13T00:21:45.846Z,63.80
2023-05-13T00:24:12.242Z,63.90
2023-05-13T00:26:38.664Z,63.90
2023-05-13T00:29:05.097Z,64.00
2023-05-13T00:31:31.515Z,64.00
2023-05-13T00:33:57.935Z,64.10
2023-05-13T00:36:24.342Z,64.10
2023-05-13T00:38:50.819Z,64.20
2023-05-13T00:41:17.275Z,64.40
2023-05-13T00:43:43.722Z,64.40
2023-05-13T00:46:10.175Z,64.40
2023-05-13T00:48:36.865Z,64.50
2023-05-13T00:51:03.515Z,64.60
2023-05-13T00:53:29.976Z,64.80
2023-05-13T00:55:56.427Z,64.80
2023-05-13T00:58:22.896Z,64.80
2023-05-13T01:00:49.386Z,65.00
2023-05-13T01:03:15.950Z,65.10
2023-05-13T01:05:42.495Z,65.10
2023-05-13T01:08:08.867Z,65.10
2023-05-13T01:10:35.330Z,65.20
2023-05-13T01:13:01.724Z,65.20
2023-05-13T01:15:28.232Z,65.40
2023-05-13T01:17:54.724Z,65.50
2023-05-13T01:20:21.398Z,65.60
2023-05-13T01:22:47.942Z,65.60
2023-05-13T01:25:14.372Z,65.50
2023-05-13T01:27:40.812Z,65.50
2023-05-13T01:30:07.268Z,65.60
2023-05-13T01:32:33.801Z,65.70
2023-05-13T01:35:00.222Z,65.70
2023-05-13T01:37:26.697Z,65.80
2023-05-13T01:39:53.086Z,65.90
2023-05-13T01:42:19.486Z,66.00
2023-05-13T01:44:45.968Z,66.00
2023-05-13T01:47:12.411Z,66.10
2023-05-13T01:49:38.798Z,66.20
2023-05-13T01:52:05.184Z,66.20
2023-05-13T01:54:31.671Z,66.30
2023-05-13T01:56:58.123Z,66.40
2023-05-13T01:59:24.529Z,66.50
2023-05-13T02:01:50.938Z,66.60
2023-05-13T02:04:17.363Z,67.30
2023-05-13T02:06:43.776Z,66.80
2023-05-13T02:09:10.207Z,67.00
2023-05-13T02:11:36.765Z,67.10
2023-05-13T02:14:03.469Z,67.20
2023-05-13T02:16:29.953Z,67.40
2023-05-13T02:18:56.488Z,67.40
2023-05-13T02:21:22.955Z,67.50
2023-05-13T02:23:49.381Z,67.50
2023-05-13T02:26:15.949Z,67.50
2023-05-13T02:28:42.406Z,67.60
2023-05-13T02:31:08.780Z,67.60
2023-05-13T02:33:35.259Z,67.70
2023-05-13T02:36:01.698Z,67.80
2023-05-13T02:38:28.099Z,67.70
2023-05-13T02:40:54.513Z,67.90
2023-05-13T02:43:20.981Z,68.10
2023-05-13T02:45:47.498Z,68.10
2023-05-13T02:48:13.908Z,68.10
2023-05-13T02:50:40.369Z,68.20
2023-05-13T02:53:06.881Z,68.30
2023-05-13T02:55:33.272Z,68.40
2023-05-13T02:57:59.684Z,68.50
2023-05-13T03:00:26.106Z,68.70
2023-05-13T03:02:52.594Z,68.70
2023-05-13T03:05:19.119Z,68.80
2023-05-13T03:07:45.835Z,68.70
2023-05-13T03:10:12.256Z,68.90
2023-05-13T03:12:38.655Z,68.90
2023-05-13T03:15:05.076Z,69.00
2023-05-13T03:17:31.502Z,69.10
2023-05-13T03:19:58.002Z,69.20
2023-05-13T03:22:24.456Z,69.20
2023-05-13T03:24:50.905Z,69.20
2023-05-13T03:27:17.309Z,69.20
2023-05-13T03:29:43.712Z,69.40
2023-05-13T03:32:10.095Z,69.40
2023-05-13T03:34:36.779Z,69.50
2023-05-13T03:37:03.476Z,69.60
2023-05-13T03:39:29.843Z,70.30
2023-05-13T03:41:56.303Z,69.80
2023-05-13T03:44:22.703Z,69.90
2023-05-13T03:46:49.174Z,70.00
2023-05-13T03:49:16.026Z,70.20
2023-05-13T03:51:42.508Z,70.20
2023-05-13T03:54:08.951Z,70.30
2023-05-13T03:56:35.385Z,70.30
2023-05-13T03:59:01.838Z,70.30
2023-05-13T04:01:28.272Z,70.50
2023-05-13T04:03:54.769Z,70.60
2023-05-13T04:06:21.222Z,70.60
2023-05-13T04:08:47.691Z,70.70
2023-05-13T04:11:14.127Z,70.90
2023-05-13T04:13:40.537Z,71.10
2023-05-13T04:16:06.984Z,71.00
2023-05-13T04:18:33.454Z,71.00
2023-05-13T04:20:59.943Z,71.10
2023-05-13T04:23:26.419Z,71.10
2023-05-13T04:25:52.897Z,71.20
2023-05-13T04:28:19.283Z,71.20
2023-05-13T04:30:45.876Z,71.20
2023-05-13T04:33:12.393Z,71.20
2023-05-13T04:35:39.018Z,71.20
2023-05-13T04:38:05.460Z,71.10
2023-05-13T04:40:31.880Z,71.30
2023-05-13T04:42:58.322Z,71.40
2023-05-13T04:45:24.771Z,71.50
2023-05-13T04:47:51.289Z,71.40
2023-05-13T04:50:17.762Z,71.30
2023-05-13T04:52:44.493Z,71.30
2023-05-13T04:55:10.942Z,71.40
2023-05-13T04:57:37.908Z,71.40
2023-05-13T05:00:04.489Z,71.50
2023-05-13T05:02:30.947Z,71.50
2023-05-13T05:04:57.389Z,71.50
2023-05-13T05:07:23.822Z,71.50
2023-05-13T05:09:50.289Z,71.50
2023-05-13T05:12:16.694Z,71.40
2023-05-13T05:14:43.086Z,71.40
2023-05-13T05:17:09.532Z,71.50
2023-05-13T05:19:36.078Z,71.60
2023-05-13T05:22:02.555Z,71.90
2023-05-13T05:24:29.012Z,71.90
2023-05-13T05:26:55.453Z,71.90
2023-05-13T05:29:21.901Z,72.00
2023-05-13T05:31:48.331Z,71.90
2023-05-13T05:34:14.824Z,71.90
2023-05-13T05:36:41.222Z,72.00
2023-05-13T05:39:07.679Z,72.00
2023-05-13T05:41:34.082Z,71.80
2023-05-13T05:44:00.477Z,71.80
2023-05-13T05:46:27.006Z,71.80
2023-05-13T05:48:53.453Z,71.90
2023-05-13T05:51:19.921Z,71.80
2023-05-13T05:53:46.382Z,71.70
2023-05-13T05:56:12.805Z,71.60
2023-05-13T05:58:39.205Z,71.80
2023-05-13T06:01:05.670Z,71.70
2023-05-13T06:03:32.278Z,71.60
2023-05-13T06:05:58.806Z,71.60
2023-05-13T06:08:25.273Z,71.60
2023-05-13T06:10:51.719Z,71.70
2023-05-13T06:13:18.149Z,71.60
2023-05-13T06:15:44.676Z,71.60
2023-05-13T06:18:11.073Z,71.50
2023-05-13T06:20:37.614Z,71.50
2023-05-13T06:23:04.225Z,71.50
2023-05-13T06:25:30.626Z,71.50
2023-05-13T06:27:57.040Z,71.70
2023-05-13T06:30:23.704Z,71.60
2023-05-13T06:32:57.842Z,71.60
2023-05-13T06:35:28.240Z,71.50
2023-05-13T06:37:54.632Z,71.50
2023-05-13T06:40:21.259Z,71.60
2023-05-13T06:42:47.781Z,71.60
2023-05-13T06:45:14.254Z,71.80
2023-05-13T06:47:40.739Z,71.70
2023-05-13T06:50:07.188Z,71.50
2023-05-13T06:52:33.666Z,71.50
2023-05-13T06:55:00.119Z,71.50
2023-05-13T06:57:38.848Z,71.60
2023-05-13T07:00:08.605Z,71.70
2023-05-13T07:02:35.112Z,71.70
2023-05-13T07:05:01.533Z,71.60
2023-05-13T07:07:27.922Z,71.40
2023-05-13T07:09:54.300Z,71.30
2023-05-13T07:12:20.710Z,71.30
2023-05-13T07:14:47.159Z,71.30
2023-05-13T07:17:13.641Z,71.10
2023-05-13T07:19:40.198Z,70.80
2023-05-13T07:22:06.880Z,70.60
2023-05-13T07:24:33.310Z,70.50
2023-05-13T07:26:59.696Z,70.40
2023-05-13T07:29:27.613Z,70.20
2023-05-13T07:31:54.115Z,70.00
2023-05-13T07:34:20.530Z,69.70
2023-05-13T07:36:47.004Z,69.30
2023-05-13T07:39:13.446Z,68.90
2023-05-13T07:41:39.905Z,68.80
2023-05-13T07:44:06.300Z,68.40
2023-05-13T07:46:32.768Z,67.90
2023-05-13T07:48:59.286Z,67.60
2023-05-13T07:51:25.734Z,67.30
2023-05-13T07:53:52.172Z,67.20
2023-05-13T07:56:18.565Z,67.00
2023-05-13T07:58:45.017Z,66.50
2023-05-13T08:01:11.467Z,66.20
2023-05-13T08:03:38.124Z,65.90
2023-05-13T08:06:04.713Z,65.40
2023-05-13T08:08:31.170Z,65.10
2023-05-13T08:10:57.633Z,64.70
2023-05-13T08:13:24.080Z,64.10
2023-05-13T08:15:50.556Z,63.60
2023-05-13T08:18:17.104Z,63.10
2023-05-13T08:20:43.540Z,62.80
2023-05-13T08:23:09.992Z,62.70
2023-05-13T08:25:36.427Z,62.30
2023-05-13T08:28:02.809Z,61.80
2023-05-13T08:30:29.257Z,61.50
2023-05-13T08:32:55.748Z,61.30
2023-05-13T08:35:22.349Z,60.80
2023-05-13T08:37:48.908Z,60.60
2023-05-13T08:40:15.314Z,60.30
2023-05-13T08:42:41.722Z,60.10
2023-05-13T08:45:08.187Z,59.60
2023-05-13T08:47:36.847Z,59.20
2023-05-13T08:50:03.641Z,59.00
2023-05-13T08:52:30.061Z,58.40
2023-05-13T08:54:56.505Z,58.30
2023-05-13T08:57:22.993Z,58.00
2023-05-13T08:59:49.431Z,57.50
2023-05-13T09:02:16.167Z,56.90
2023-05-13T09:04:42.724Z,56.70
2023-05-13T09:07:09.244Z,56.20
2023-05-13T09:09:35.702Z,55.80
2023-05-13T09:12:02.104Z,55.00
2023-05-13T09:14:28.561Z,54.90
2023-05-13T09:16:55.011Z,54.80
2023-05-13T09:19:21.600Z,54.50
2023-05-13T09:21:49.181Z,54.60
2023-05-13T09:24:15.761Z,54.70
2023-05-13T09:26:42.277Z,54.20
2023-05-13T09:29:08.898Z,53.80
2023-05-13T09:31:35.326Z,53.00
2023-05-13T09:34:01.725Z,53.10
2023-05-13T09:36:28.192Z,53.00
2023-05-13T09:38:54.578Z,52.80
2023-05-13T09:41:21.035Z,52.50
2023-05-13T09:43:47.417Z,52.50
2023-05-13T09:46:13.794Z,52.20
2023-05-13T09:48:40.425Z,52.10
2023-05-13T09:51:07.097Z,51.90
2023-05-13T09:53:33.563Z,50.60
2023-05-13T09:56:00.090Z,50.50
2023-05-13T09:58:26.678Z,50.20
2023-05-13T10:00:53.240Z,50.00
2023-05-13T10:03:19.739Z,49.10
2023-05-13T10:05:46.256Z,48.60
2023-05-13T10:08:12.712Z,49.00
2023-05-13T10:10:39.097Z,48.60
2023-05-13T10:13:05.558Z,48.10
2023-05-13T10:15:32.012Z,47.20
2023-05-13T10:17:58.467Z,45.50
2023-05-13T10:20:24.916Z,45.70
2023-05-13T10:22:51.386Z,45.70
2023-05-13T10:25:17.821Z,45.10
2023-05-13T10:27:44.256Z,44.00
2023-05-13T10:30:10.712Z,44.20
2023-05-13T10:32:37.168Z,44.60
2023-05-13T10:35:03.695Z,44.40
2023-05-13T10:37:30.101Z,44.60
2023-05-13T10:39:56.539Z,43.70
2023-05-13T10:42:22.974Z,43.10
2023-05-13T10:44:49.416Z,43.00
2023-05-13T10:47:16.126Z,41.80
2023-05-13T10:49:42.510Z,42.10
2023-05-13T10:52:09.543Z,41.40
2023-05-13T10:54:36.721Z,41.10
2023-05-13T10:57:03.377Z,41.40
2023-05-13T10:59:29.782Z,41.10
2023-05-13T11:01:56.228Z,40.90
2023-05-13T11:04:22.619Z,40.50
2023-05-13T11:06:49.049Z,40.60
2023-05-13T11:09:15.455Z,40.20
2023-05-13T11:11:41.972Z,39.70
2023-05-13T11:14:08.742Z,39.30
2023-05-13T11:16:35.444Z,39.20
2023-05-13T11:19:01.951Z,39.10
2023-05-13T11:21:28.354Z,39.10
2023-05-13T11:23:54.739Z,39.10
2023-05-13T11:26:21.174Z,39.70
2023-05-13T11:28:47.670Z,40.20
2023-05-13T11:31:14.059Z,40.00
2023-05-13T11:33:40.540Z,39.30
2023-05-13T11:36:07.137Z,38.50
2023-05-13T11:38:33.590Z,37.90
2023-05-13T11:40:59.989Z,36.90
2023-05-13T11:43:26.374Z,37.40
2023-05-13T11:45:52.820Z,37.30
2023-05-13T11:48:19.287Z,37.40
2023-05-13T11:50:45.924Z,37.00
2023-05-13T11:53:12.390Z,35.80
2023-05-13T11:55:38.797Z,35.90
2023-05-13T11:58:05.249Z,36.40
2023-05-13T12:00:31.656Z,36.70
2023-05-13T12:02:58.176Z,37.10
2023-05-13T12:05:24.990Z,37.10
2023-05-13T12:07:51.762Z,37.10
2023-05-13T12:10:18.164Z,36.80
2023-05-13T12:12:44.635Z,36.40
2023-05-13T12:15:11.035Z,35.60
2023-05-13T12:17:37.530Z,36.10
2023-05-13T12:20:04.068Z,36.90
2023-05-13T12:22:30.512Z,37.10
2023-05-13T12:24:56.969Z,37.10
2023-05-13T12:27:23.407Z,36.60
2023-05-13T12:29:49.860Z,36.50
2023-05-13T12:32:16.374Z,36.60
2023-05-13T12:34:42.805Z,36.80
2023-05-13T12:37:09.312Z,37.00
2023-05-13T12:39:35.747Z,37.20
2023-05-13T12:42:02.178Z,36.90
2023-05-13T12:44:28.636Z,36.40
2023-05-13T12:46:55.136Z,36.10
2023-05-13T12:49:21.644Z,35.90
2023-05-13T12:51:48.069Z,35.60
2023-05-13T12:54:14.459Z,35.70
2023-05-13T12:56:40.858Z,35.50
2023-05-13T12:59:07.551Z,35.30
2023-05-13T13:01:34.144Z,35.00
2023-05-13T13:04:00.990Z,34.90
2023-05-13T13:06:27.482Z,34.90
2023-05-13T13:08:53.908Z,34.50
2023-05-13T13:11:20.369Z,34.40
2023-05-13T13:13:47.016Z,34.30
2023-05-13T13:16:13.464Z,34.80
2023-05-13T13:18:39.927Z,34.60
2023-05-13T13:21:06.401Z,34.20
2023-05-13T13:23:32.779Z,33.40
2023-05-13T13:25:59.218Z,33.20
2023-05-13T13:28:25.688Z,32.80
2023-05-13T13:30:52.187Z,33.10
2023-05-13T13:33:18.665Z,33.60
2023-05-13T13:35:45.083Z,33.70
2023-05-13T13:38:11.477Z,34.30
2023-05-13T13:40:38.159Z,34.60
2023-05-13T13:43:04.559Z,34.30
2023-05-13T13:45:30.955Z,34.50
2023-05-13T13:47:57.352Z,34.50
2023-05-13T13:50:24.090Z,33.70
2023-05-13T13:52:50.588Z,33.30
2023-05-13T13:55:17.032Z,33.20
2023-05-13T13:57:43.484Z,33.20
2023-05-13T14:00:09.941Z,33.40
2023-05-13T14:02:36.475Z,33.10
2023-05-13T14:05:02.960Z,33.60
2023-05-13T14:07:29.607Z,32.80
2023-05-13T14:09:56.148Z,32.00
2023-05-13T14:12:22.659Z,32.50
2023-05-13T14:14:49.036Z,32.90
2023-05-13T14:17:15.529Z,33.30
2023-05-13T14:19:41.920Z,33.50
2023-05-13T14:22:08.291Z,33.30
2023-05-13T14:24:34.752Z,33.80
2023-05-13T14:27:01.170Z,32.90
2023-05-13T14:29:27.682Z,32.50
2023-05-13T14:31:54.218Z,32.20
2023-05-13T14:34:20.630Z,32.40
2023-05-13T14:36:47.334Z,32.30
2023-05-13T14:39:13.740Z,32.80
2023-05-13T14:41:40.169Z,32.80
2023-05-13T14:44:06.634Z,32.00
2023-05-13T14:46:33.302Z,31.40
2023-05-13T14:48:59.752Z,31.60
2023-05-13T14:51:26.215Z,31.80
2023-05-13T14:53:52.722Z,32.00
2023-05-13T14:56:19.156Z,31.70
2023-05-13T14:58:45.582Z,32.00
2023-05-13T15:01:12.002Z,32.10
2023-05-13T15:03:38.573Z,32.10
2023-05-13T15:06:05.050Z,32.30
2023-05-13T15:08:31.574Z,32.00
2023-05-13T15:10:57.998Z,32.30
2023-05-13T15:13:24.434Z,32.20
2023-05-13T15:15:50.838Z,32.30
2023-05-13T15:18:17.371Z,32.50
2023-05-13T15:20:43.841Z,33.10
2023-05-13T15:23:10.289Z,32.80
2023-05-13T15:25:36.885Z,32.70
2023-05-13T15:28:03.481Z,32.20
2023-05-13T15:30:29.892Z,32.40
2023-05-13T15:32:56.433Z,31.90
2023-05-13T15:35:22.971Z,32.20
2023-05-13T15:37:49.357Z,32.60
2023-05-13T15:40:15.802Z,32.70
2023-05-13T15:42:42.228Z,32.80
2023-05-13T15:45:08.632Z,32.70
2023-05-13T15:47:35.133Z,33.10
2023-05-13T15:50:01.601Z,33.20
2023-05-13T15:52:28.025Z,33.20
2023-05-13T15:54:54.489Z,32.70
2023-05-13T15:57:20.988Z,32.70
2023-05-13T15:59:47.385Z,32.70
2023-05-13T16:02:13.801Z,32.00
2023-05-13T16:04:40.393Z,32.30
2023-05-13T16:07:06.836Z,33.00
2023-05-13T16:09:33.259Z,33.40
2023-05-13T16:11:59.718Z,33.20
2023-05-13T16:14:26.124Z,33.00
2023-05-13T16:16:52.584Z,32.90
2023-05-13T16:19:19.056Z,33.10
2023-05-13T16:21:45.514Z,33.40
2023-05-13T16:24:11.927Z,33.40
2023-05-13T16:26:38.375Z,33.10
2023-05-13T16:29:04.862Z,33.20
2023-05-13T16:31:31.371Z,33.30
2023-05-13T16:33:57.814Z,33.10
2023-05-13T16:36:24.305Z,33.50
2023-05-13T16:38:50.683Z,33.30
2023-05-13T16:41:17.364Z,33.50
2023-05-13T16:43:43.798Z,34.10
2023-05-13T16:46:10.233Z,34.10
2023-05-13T16:48:36.767Z,33.90
2023-05-13T16:51:03.384Z,34.10
2023-05-13T16:53:29.812Z,34.10
2023-05-13T16:55:56.257Z,34.20
2023-05-13T16:58:22.728Z,34.30
2023-05-13T17:00:49.270Z,34.60
2023-05-13T17:03:16.198Z,34.60
2023-05-13T17:05:42.828Z,34.90
2023-05-13T17:08:09.290Z,34.80
2023-05-13T17:10:35.755Z,34.70
2023-05-13T17:13:02.172Z,34.80
2023-05-13T17:15:28.574Z,34.70
2023-05-13T17:17:55.067Z,35.10
2023-05-13T17:20:21.828Z,35.30
2023-05-13T17:22:48.600Z,35.50
2023-05-13T17:25:17.916Z,35.70
2023-05-13T17:27:44.325Z,35.80
2023-05-13T17:30:10.724Z,36.20
2023-05-13T17:32:37.189Z,36.10
2023-05-13T17:35:03.598Z,36.40
2023-05-13T17:37:29.968Z,36.80
2023-05-13T17:39:56.370Z,37.20
2023-05-13T17:42:22.785Z,37.10
2023-05-13T17:44:49.230Z,37.40
2023-05-13T17:47:15.664Z,37.70
2023-05-13T17:49:42.059Z,37.80
2023-05-13T17:52:08.518Z,38.00
2023-05-13T17:54:34.905Z,38.30
2023-05-13T17:57:01.271Z,38.30
2023-05-13T17:59:27.690Z,38.50
2023-05-13T18:01:54.161Z,38.70
2023-05-13T18:04:20.654Z,38.80
2023-05-13T18:06:47.291Z,38.90
2023-05-13T18:09:13.747Z,39.10
2023-05-13T18:11:40.195Z,39.40
2023-05-13T18:14:06.709Z,39.50
2023-05-13T18:16:33.241Z,39.60
2023-05-13T18:18:59.742Z,39.70
2023-05-13T18:21:26.214Z,40.00
2023-05-13T18:23:52.660Z,40.70
2023-05-13T18:26:19.179Z,40.30
2023-05-13T18:28:45.692Z,40.60
2023-05-13T18:31:12.185Z,40.70
2023-05-13T18:33:38.640Z,40.80
2023-05-13T18:36:05.126Z,41.00
2023-05-13T18:38:31.566Z,41.20
2023-05-13T18:40:58.111Z,41.30
2023-05-13T18:43:24.516Z,41.40
2023-05-13T18:45:51.018Z,41.70
2023-05-13T18:48:17.544Z,41.90
2023-05-13T18:50:43.971Z,42.20
2023-05-13T18:53:10.448Z,42.40
2023-05-13T18:55:36.854Z,42.80
2023-05-13T18:58:03.453Z,43.10
2023-05-13T19:00:29.902Z,43.50
2023-05-13T19:02:56.362Z,43.80
2023-05-13T19:05:22.877Z,44.10
2023-05-13T19:07:49.261Z,44.40
2023-05-13T19:10:15.836Z,44.90
2023-05-13T19:12:42.241Z,45.10
2023-05-13T19:15:08.660Z,45.70
2023-05-13T19:17:35.178Z,46.00
2023-05-13T19:20:01.613Z,46.50
2023-05-13T19:22:28.005Z,46.90
2023-05-13T19:24:54.440Z,47.20
2023-05-13T19:27:20.866Z,47.50
2023-05-13T19:29:47.247Z,47.50
2023-05-13T19:32:13.716Z,47.90
2023-05-13T19:34:40.197Z,48.10
2023-05-13T19:37:06.683Z,48.40
2023-05-13T19:39:33.094Z,48.50
2023-05-13T19:41:59.551Z,48.50
2023-05-13T19:44:25.942Z,48.80
2023-05-13T19:46:52.470Z,49.00
2023-05-13T19:49:18.964Z,49.00
2023-05-13T19:51:45.699Z,49.10
2023-05-13T19:54:12.149Z,49.20
2023-05-13T19:56:38.552Z,49.30
2023-05-13T19:59:04.980Z,49.40
2023-05-13T20:01:31.497Z,49.50
2023-05-13T20:03:57.968Z,49.80
2023-05-13T20:06:24.497Z,49.90
2023-05-13T20:08:50.909Z,49.80
2023-05-13T20:11:17.306Z,49.80
2023-05-13T20:13:43.740Z,50.00
2023-05-13T20:16:10.216Z,50.20
2023-05-13T20:18:36.827Z,50.30
2023-05-13T20:21:03.488Z,50.50
2023-05-13T20:23:29.907Z,50.70
2023-05-13T20:25:56.352Z,51.20
2023-05-13T20:28:22.807Z,51.40
2023-05-13T20:30:49.262Z,51.60
2023-05-13T20:33:15.758Z,51.60
2023-05-13T20:35:42.210Z,51.70
2023-05-13T20:38:08.614Z,52.00
2023-05-13T20:40:35.050Z,52.20
2023-05-13T20:43:01.497Z,52.60
2023-05-13T20:45:27.964Z,52.70
2023-05-13T20:47:54.414Z,52.90
2023-05-13T20:50:20.992Z,53.10
2023-05-13T20:52:47.634Z,53.40
2023-05-13T20:55:14.015Z,53.50
2023-05-13T20:57:40.482Z,53.80
2023-05-13T21:00:06.950Z,53.90
2023-05-13T21:02:33.429Z,54.10
2023-05-13T21:04:59.904Z,54.30
2023-05-13T21:07:26.282Z,54.50
2023-05-13T21:09:52.772Z,54.60
2023-05-13T21:12:19.181Z,54.80
2023-05-13T21:14:45.797Z,54.90
2023-05-13T21:17:12.183Z,55.10
2023-05-13T21:19:38.582Z,55.20
2023-05-13T21:22:05.041Z,55.50
2023-05-13T21:24:31.466Z,55.80
2023-05-13T21:26:57.900Z,56.00
2023-05-13T21:29:24.312Z,56.20
2023-05-13T21:31:50.753Z,56.50
2023-05-13T21:34:17.161Z,56.80
2023-05-13T21:36:43.587Z,56.80
2023-05-13T21:39:09.986Z,57.00
2023-05-13T21:41:36.516Z,57.20
2023-05-13T21:44:03.191Z,57.30
2023-05-13T21:46:29.720Z,57.50
2023-05-13T21:48:56.216Z,57.70
2023-05-13T21:51:22.694Z,57.80
2023-05-13T21:53:49.135Z,58.20
2023-05-13T21:56:15.721Z,58.50
2023-05-13T21:58:42.153Z,58.70
2023-05-13T22:01:08.695Z,58.60
2023-05-13T22:03:35.284Z,58.70
2023-05-13T22:06:01.749Z,58.90
2023-05-13T22:08:28.197Z,59.10
2023-05-13T22:10:54.671Z,59.20
2023-05-13T22:13:21.128Z,59.30
2023-05-13T22:15:47.574Z,59.50
2023-05-13T22:18:14.065Z,59.70
2023-05-13T22:20:40.530Z,59.90
2023-05-13T22:23:07.003Z,60.20
2023-05-13T22:25:33.408Z,60.60
2023-05-13T22:28:02.002Z,60.80
2023-05-13T22:30:28.459Z,60.70
2023-05-13T22:32:54.899Z,60.70
2023-05-13T22:35:21.397Z,60.70
2023-05-13T22:37:47.849Z,60.70
2023-05-13T22:40:14.274Z,60.60
2023-05-13T22:42:40.695Z,60.60
2023-05-13T22:45:07.113Z,60.70
2023-05-13T22:47:33.683Z,60.90
2023-05-13T22:50:00.220Z,61.00
2023-05-13T22:52:26.667Z,61.20
2023-05-13T22:54:53.077Z,61.30
2023-05-13T22:57:19.474Z,61.50
2023-05-13T22:59:45.926Z,61.60
2023-05-13T23:02:12.454Z,61.80
2023-05-13T23:04:38.974Z,61.90
2023-05-13T23:07:05.431Z,62.10
2023-05-13T23:09:31.867Z,62.20
2023-05-13T23:11:58.310Z,62.30
2023-05-13T23:14:24.702Z,62.60
2023-05-13T23:16:51.067Z,62.70
2023-05-13T23:19:17.505Z,62.90
2023-05-13T23:21:43.952Z,62.90
2023-05-13T23:24:10.409Z,63.00
2023-05-13T23:26:36.850Z,63.30
2023-05-13T23:29:03.379Z,63.50
2023-05-13T23:31:29.800Z,63.70
2023-05-13T23:33:56.217Z,63.80
2023-05-13T23:36:22.679Z,63.90
2023-05-13T23:38:49.061Z,63.80
2023-05-13T23:41:15.735Z,63.90
2023-05-13T23:43:42.188Z,63.90
2023-05-13T23:46:08.643Z,64.00
2023-05-13T23:48:35.100Z,64.00
2023-05-13T23:51:01.510Z,64.00
2023-05-13T23:53:27.958Z,64.20
2023-05-13T23:55:54.333Z,64.30
2023-05-13T23:58:20.781Z,64.40
